Time;durP1;ratioP1;P1;durP2;ratioP2;P2;SDS_P1;SDS_P2;PMS_P1;PMS_P2;Temp;Humidity;BMP_temperature;BMP_pressure;BME280_temperature;BME280_humidity;BME280_pressure;Samples;Min_cycle;Max_cycle;Signal;HPM_P1;HPM_P2
2023/01/05 00:01:17;;;;;;;312.85;284.08;;;;;;;11.79;68.76;100001.44;5091958;28;20035;-48
2023/01/05 00:03:43;;;;;;;41.97;36.30;;;;;;;11.80;69.39;100004.88;5091901;28;20024;-48
2023/01/05 00:06:14;;;;;;;39.65;35.35;;;;;;;11.71;69.21;100001.50;5090454;28;20031;-48
2023/01/05 00:08:40;;;;;;;55.63;49.85;;;;;;;11.65;69.39;100007.47;5091901;28;20020;-48
2023/01/05 00:22:31;;;;;;;158.75;143.48;;;;;;;13.05;67.79;99985.91;5091812;28;20031;-48
2023/01/05 00:25:09;;;;;;;121.93;110.28;;;;;;;13.24;66.40;99992.44;5090397;28;20020;-48
2023/01/05 00:27:35;;;;;;;105.60;95.18;;;;;;;13.12;65.95;99981.53;5091556;28;20052;-48
2023/01/05 00:30:01;;;;;;;191.18;173.43;;;;;;;12.84;65.81;99991.09;5091676;28;20090;-48
2023/01/05 00:32:27;;;;;;;123.40;111.28;;;;;;;12.53;66.05;99986.84;5090396;28;20032;-48
2023/01/05 00:34:57;;;;;;;95.70;85.82;;;;;;;12.19;66.31;99988.16;5090332;28;20078;-48
2023/01/05 00:37:25;;;;;;;497.88;444.83;;;;;;;12.04;67.96;99988.13;5090344;28;20024;-48
2023/01/05 00:39:52;;;;;;;375.67;338.98;;;;;;;12.20;68.58;99984.53;5091640;28;20016;-48
2023/01/05 00:42:17;;;;;;;135.50;122.07;;;;;;;12.55;67.67;99980.38;5090256;28;20059;-48
2023/01/05 00:44:43;;;;;;;176.93;159.60;;;;;;;12.62;67.78;99972.59;5091562;28;20093;-47
2023/01/05 00:47:09;;;;;;;219.75;199.25;;;;;;;12.89;67.82;99979.00;5093087;28;20134;-48
2023/01/05 00:49:34;;;;;;;241.73;219.40;;;;;;;13.03;67.53;99981.81;5094146;28;20028;-48
2023/01/05 00:52:00;;;;;;;149.95;135.68;;;;;;;13.14;67.37;99970.81;5095362;28;20570;-48
2023/01/05 00:54:26;;;;;;;154.20;139.73;;;;;;;13.24;66.90;99973.97;5094224;28;20482;-48
2023/01/05 00:56:51;;;;;;;63.60;57.10;;;;;;;13.12;66.46;99967.53;5094007;28;20036;-48
2023/01/05 00:59:17;;;;;;;31.95;28.40;;;;;;;12.81;65.98;99979.09;5095322;28;20016;-48
2023/01/05 01:01:51;;;;;;;113.43;101.97;;;;;;;12.59;67.07;99971.13;5095262;28;20470;-49
2023/01/05 01:04:18;;;;;;;101.78;90.95;;;;;;;12.81;67.07;99971.22;5093877;28;20055;-48
2023/01/05 01:06:44;;;;;;;38.63;34.63;;;;;;;12.75;66.25;99961.41;5094966;28;20059;-48
2023/01/05 01:09:10;;;;;;;29.23;23.38;;;;;;;12.52;66.34;99966.78;5093992;28;20391;-48
2023/01/05 01:11:36;;;;;;;34.55;30.75;;;;;;;11.90;66.11;99967.84;5093734;28;20024;-48
2023/01/05 01:14:04;;;;;;;45.47;40.97;;;;;;;11.27;68.03;99965.31;5093790;28;20020;-48
2023/01/05 01:16:30;;;;;;;46.17;41.28;;;;;;;10.84;69.65;99970.09;5094936;28;20024;-48
2023/01/05 01:18:56;;;;;;;28.77;25.45;;;;;;;10.47;71.20;99971.53;5094931;28;20024;-48
2023/01/05 01:21:22;;;;;;;29.20;24.80;;;;;;;10.28;72.02;99966.59;5094843;28;20020;-48
2023/01/05 01:23:47;;;;;;;37.55;33.63;;;;;;;10.25;72.61;99970.38;5093488;28;20027;-48
2023/01/05 01:26:13;;;;;;;188.55;169.30;;;;;;;10.37;73.74;99976.94;5094347;28;20028;-48
2023/01/05 01:28:39;;;;;;;318.23;288.48;;;;;;;11.00;74.31;99972.63;5095010;28;20553;-47
2023/01/05 01:31:05;;;;;;;91.18;81.97;;;;;;;11.71;73.39;99964.69;5094553;28;20074;-48
2023/01/05 01:33:31;;;;;;;61.75;52.92;;;;;;;12.16;71.16;99970.09;5094561;28;20099;-48
2023/01/05 01:35:58;;;;;;;73.72;66.15;;;;;;;12.22;70.55;99965.94;5094554;28;20020;-48
2023/01/05 01:38:24;;;;;;;25.10;19.52;;;;;;;12.41;69.56;99968.03;5094614;28;20389;-48
2023/01/05 01:40:50;;;;;;;25.67;23.05;;;;;;;12.30;68.43;99965.84;5094480;28;20027;-48
2023/01/05 01:43:19;;;;;;;21.23;17.40;;;;;;;11.79;68.06;99963.78;5093151;28;20031;-48
2023/01/05 01:45:45;;;;;;;46.05;40.60;;;;;;;11.36;69.55;99969.50;5092989;28;20047;-48
2023/01/05 01:48:16;;;;;;;42.30;35.63;;;;;;;11.27;70.55;99967.09;5076240;28;20619;-48
2023/01/05 01:50:52;;;;;;;73.57;66.13;;;;;;;11.39;71.53;99965.72;5094253;28;20028;-48
2023/01/05 01:53:27;;;;;;;42.78;33.25;;;;;;;11.63;71.08;99967.38;5094546;28;20038;-48
2023/01/05 01:55:54;;;;;;;134.57;121.53;;;;;;;11.70;71.16;99970.94;5094272;28;20108;-48
2023/01/05 01:58:24;;;;;;;300.13;269.42;;;;;;;11.89;72.32;99968.84;5093995;28;20489;-48
2023/01/05 02:00:50;;;;;;;268.17;243.23;;;;;;;12.60;71.95;99958.78;5094108;28;20032;-48
2023/01/05 02:03:16;;;;;;;127.55;115.68;;;;;;;13.05;69.98;99956.91;5094063;28;20494;-48
2023/01/05 02:05:42;;;;;;;94.97;85.53;;;;;;;13.21;68.58;99953.25;5092572;28;20513;-48
2023/01/05 02:08:13;;;;;;;121.68;110.13;;;;;;;13.18;67.59;99959.72;5092784;28;20038;-48
2023/01/05 02:11:16;;;;;;;146.82;131.50;;;;;;;13.11;68.04;99956.16;5093835;28;20406;-48
2023/01/05 02:14:18;;;;;;;84.05;75.20;;;;;;;13.19;67.16;99942.88;5093972;28;20489;-48
2023/01/05 02:16:50;;;;;;;110.95;100.22;;;;;;;13.12;67.41;99941.16;5093860;28;20032;-48
2023/01/05 02:19:37;;;;;;;91.35;81.78;;;;;;;13.29;66.93;99939.97;5093831;28;20052;-48
2023/01/05 02:22:14;;;;;;;97.97;87.60;;;;;;;13.45;66.38;99924.94;5094008;28;20032;-48
2023/01/05 02:25:01;;;;;;;91.68;82.93;;;;;;;13.58;66.19;99927.66;5093894;28;20028;-48
2023/01/05 02:27:56;;;;;;;97.25;88.35;;;;;;;13.76;65.35;99927.22;5093304;28;20048;-48
2023/01/05 02:30:58;;;;;;;63.40;56.00;;;;;;;13.68;65.53;99928.19;5079962;28;20054;-48
2023/01/05 02:33:53;;;;;;;37.25;30.55;;;;;;;13.67;65.05;99926.53;5092147;28;20118;-48
2023/01/05 02:36:24;;;;;;;28.42;25.55;;;;;;;13.35;64.73;99926.03;5093445;28;20024;-48
2023/01/05 02:39:02;;;;;;;26.58;21.33;;;;;;;12.99;65.19;99921.56;5092128;28;20064;-48
2023/01/05 02:42:01;;;;;;;22.77;19.80;;;;;;;12.76;65.81;99921.72;5091991;28;20028;-48
2023/01/05 02:44:29;;;;;;;57.83;46.60;;;;;;;12.53;66.38;99916.53;5092774;28;20067;-48
2023/01/05 02:47:28;;;;;;;56.17;50.15;;;;;;;12.39;66.91;99912.94;5091928;28;20480;-48
2023/01/05 02:50:02;;;;;;;39.17;33.22;;;;;;;12.15;67.11;99911.38;5091829;28;20114;-48
2023/01/05 02:52:35;;;;;;;103.18;93.57;;;;;;;11.93;67.74;99909.59;5091906;28;20408;-48
2023/01/05 02:55:07;;;;;;;229.43;182.57;;;;;;;12.02;69.04;99907.75;5091787;28;20036;-48
2023/01/05 02:57:46;;;;;;;179.95;160.32;;;;;;;12.32;69.45;99908.56;5093330;28;20077;-48
2023/01/05 03:00:23;;;;;;;122.82;110.50;;;;;;;12.42;68.15;99903.84;5091709;28;20036;-48
2023/01/05 03:03:12;;;;;;;406.73;365.60;;;;;;;12.25;68.45;99903.19;5093001;28;20027;-48
2023/01/05 03:05:55;;;;;;;281.60;255.23;;;;;;;12.31;69.04;99899.03;5092498;28;20075;-48
2023/01/05 03:08:23;;;;;;;237.38;215.00;;;;;;;12.47;68.82;99898.03;5091095;28;20094;-48
2023/01/05 03:13:41;;;;;;;266.02;240.85;;;;;;;12.48;69.01;99889.16;5092968;28;20123;-48
2023/01/05 03:16:15;;;;;;;112.65;101.28;;;;;;;12.62;70.25;99883.03;5091327;28;20032;-48
2023/01/05 03:21:28;;;;;;;33.00;28.27;;;;;;;13.06;70.63;99884.75;5092621;28;20043;-48
2023/01/05 03:35:33;;;;;;;108.50;96.82;;;;;;;13.51;67.93;99868.78;5092603;28;20047;-48
2023/01/05 03:38:04;;;;;;;41.08;34.20;;;;;;;13.17;67.97;99873.72;5092338;28;20077;-48
2023/01/05 03:40:33;;;;;;;33.30;29.45;;;;;;;12.85;67.90;99871.56;5090972;28;20046;-48
2023/01/05 03:43:01;;;;;;;28.63;19.02;;;;;;;12.56;68.06;99868.78;5092257;28;20032;-48
2023/01/05 03:45:34;;;;;;;22.92;17.42;;;;;;;12.30;68.34;99874.53;5092108;28;20393;-48
2023/01/05 03:47:59;;;;;;;28.88;17.85;;;;;;;12.07;69.20;99874.59;5090876;28;20035;-48
2023/01/05 03:50:25;;;;;;;21.02;16.50;;;;;;;12.01;69.61;99866.63;5092120;28;20020;-48
2023/01/05 03:52:51;;;;;;;23.02;17.00;;;;;;;12.02;69.95;99865.63;5092076;28;20505;-48
2023/01/05 03:55:16;;;;;;;40.88;34.30;;;;;;;12.12;70.46;99867.00;5092084;28;20408;-48
2023/01/05 03:57:42;;;;;;;24.17;17.25;;;;;;;12.23;69.93;99870.97;5090746;28;20046;-48
2023/01/05 04:00:08;;;;;;;23.92;16.85;;;;;;;12.13;68.90;99863.38;5091991;28;20112;-48
2023/01/05 04:02:37;;;;;;;28.85;19.98;;;;;;;11.92;69.61;99860.63;5090691;28;20047;-48
2023/01/05 04:05:02;;;;;;;18.70;15.45;;;;;;;11.94;70.55;99869.16;5091907;28;20428;-48
2023/01/05 04:07:28;;;;;;;16.77;14.77;;;;;;;11.91;70.43;99864.25;5090575;28;20034;-48
2023/01/05 04:09:54;;;;;;;24.50;17.17;;;;;;;11.75;71.10;99859.94;5091941;28;20069;-48
2023/01/05 04:12:19;;;;;;;22.48;16.48;;;;;;;11.91;71.71;99865.09;5091873;28;20035;-48
2023/01/05 04:14:45;;;;;;;23.75;14.95;;;;;;;12.30;71.63;99857.94;5090510;28;20417;-48
2023/01/05 04:17:11;;;;;;;22.33;14.98;;;;;;;12.62;70.57;99855.91;5090562;28;20062;-48
2023/01/05 04:19:36;;;;;;;23.67;15.45;;;;;;;12.76;69.47;99853.22;5090631;28;20419;-48
2023/01/05 04:22:02;;;;;;;16.08;14.38;;;;;;;12.90;68.92;99854.19;5093184;28;20023;-48
2023/01/05 04:24:27;;;;;;;18.15;14.23;;;;;;;12.85;68.27;99853.09;5094645;28;20032;-48
2023/01/05 04:26:53;;;;;;;18.23;14.68;;;;;;;12.63;67.94;99857.53;5095577;28;20118;-48
2023/01/05 04:29:18;;;;;;;45.33;16.20;;;;;;;12.69;69.56;99854.16;5094557;28;20024;-48
2023/01/05 04:31:44;;;;;;;49.55;15.07;;;;;;;13.03;69.25;99848.22;5095841;28;20032;-48
2023/01/05 04:34:09;;;;;;;89.00;17.50;;;;;;;13.42;68.20;99854.09;5095740;28;20028;-48
2023/01/05 04:36:35;;;;;;;37.28;14.20;;;;;;;13.69;67.16;99848.03;5095738;28;20089;-48
2023/01/05 04:39:01;;;;;;;49.20;15.68;;;;;;;13.84;65.96;99847.91;5095766;28;20020;-48
2023/01/05 04:41:26;;;;;;;82.15;16.02;;;;;;;13.98;65.51;99854.09;5077422;28;20480;-48
2023/01/05 04:43:52;;;;;;;60.88;15.85;;;;;;;13.96;65.32;99849.03;5095630;28;20032;-48
2023/01/05 04:46:17;;;;;;;36.10;15.30;;;;;;;13.94;64.91;99844.94;5094426;28;20225;-48
2023/01/05 04:48:43;;;;;;;37.55;14.50;;;;;;;13.87;65.81;99854.66;5094200;28;20028;-48
2023/01/05 04:51:08;;;;;;;36.35;15.88;;;;;;;13.89;67.11;99852.63;5094150;28;20085;-48
2023/01/05 04:53:34;;;;;;;29.08;16.73;;;;;;;13.67;67.66;99850.03;5095658;28;20028;-48
2023/01/05 04:56:00;;;;;;;107.82;19.73;;;;;;;13.35;69.38;99849.56;5094076;28;20448;-48
2023/01/05 04:58:25;;;;;;;35.85;17.73;;;;;;;13.05;70.19;99851.50;5095586;28;20099;-48
2023/01/05 05:00:51;;;;;;;49.17;17.95;;;;;;;12.76;72.97;99847.94;5093952;28;20028;-48
2023/01/05 05:03:16;;;;;;;43.63;16.95;;;;;;;12.67;73.85;99856.97;5093870;28;20398;-47
2023/01/05 05:05:42;;;;;;;26.17;16.13;;;;;;;12.49;75.58;99851.28;5095146;28;20028;-48
2023/01/05 05:08:08;;;;;;;26.25;17.30;;;;;;;12.53;76.86;99849.91;5095157;28;20024;-48
2023/01/05 05:10:33;;;;;;;25.33;16.45;;;;;;;12.56;78.00;99855.63;5093741;28;20032;-48
2023/01/05 05:12:59;;;;;;;29.25;18.85;;;;;;;12.42;78.04;99861.72;5093774;28;20497;-48
2023/01/05 05:15:24;;;;;;;28.65;17.55;;;;;;;12.36;81.77;99857.19;5093572;28;20127;-48
2023/01/05 05:17:50;;;;;;;29.25;18.00;;;;;;;12.36;83.32;99862.47;5093694;28;20028;-48
2023/01/05 05:20:16;;;;;;;24.63;17.20;;;;;;;12.21;84.20;99854.56;5093586;28;20408;-48
2023/01/05 05:22:42;;;;;;;25.23;16.98;;;;;;;12.14;85.74;99864.19;5094856;28;20149;-47
2023/01/05 05:25:08;;;;;;;25.08;17.63;;;;;;;12.11;86.77;99859.28;5094769;28;20073;-47
2023/01/05 05:27:33;;;;;;;24.38;18.73;;;;;;;11.86;86.78;99869.22;5093177;28;20040;-48
2023/01/05 05:29:59;;;;;;;25.70;18.88;;;;;;;11.60;87.35;99865.16;5093507;28;20031;-48
2023/01/05 05:32:25;;;;;;;20.63;16.33;;;;;;;11.31;88.00;99868.53;5092869;28;20541;-47
2023/01/05 05:34:50;;;;;;;23.10;17.42;;;;;;;11.17;89.22;99863.03;5093347;28;20028;-48
2023/01/05 05:37:16;;;;;;;27.40;17.83;;;;;;;11.07;89.63;99870.34;5094676;28;20031;-48
2023/01/05 05:39:42;;;;;;;30.17;17.33;;;;;;;11.36;92.01;99867.00;5094577;28;20494;-48
2023/01/05 05:42:07;;;;;;;26.55;17.35;;;;;;;11.80;92.77;99873.38;5093218;28;20081;-48
2023/01/05 05:44:33;;;;;;;23.42;17.17;;;;;;;11.98;91.86;99862.53;5093205;28;20497;-47
2023/01/05 05:46:58;;;;;;;21.52;17.40;;;;;;;12.05;91.50;99868.69;5093090;28;20520;-47
2023/01/05 05:49:24;;;;;;;26.30;16.95;;;;;;;12.22;91.33;99868.56;5093029;28;20628;-48
2023/01/05 05:51:50;;;;;;;24.85;15.10;;;;;;;12.51;91.50;99867.69;5093023;28;20028;-48
2023/01/05 05:54:15;;;;;;;23.00;15.90;;;;;;;12.64;90.29;99867.88;5092943;28;20024;-47
2023/01/05 05:56:41;;;;;;;28.02;16.10;;;;;;;12.50;89.58;99869.53;5092903;28;20097;-47
2023/01/05 05:59:07;;;;;;;22.88;14.88;;;;;;;12.42;89.46;99860.91;5094208;28;20111;-48
2023/01/05 06:01:32;;;;;;;21.95;14.52;;;;;;;12.46;90.46;99875.34;5092807;28;20550;-48
2023/01/05 06:03:58;;;;;;;22.48;16.10;;;;;;;12.58;90.98;99876.50;5092839;28;20035;-47
2023/01/05 06:06:24;;;;;;;18.92;12.25;;;;;;;12.35;89.75;99887.13;5093892;28;20025;-47
2023/01/05 06:08:50;;;;;;;25.73;16.52;;;;;;;12.24;90.85;99877.09;5092721;28;20016;-47
2023/01/05 06:11:15;;;;;;;21.27;13.65;;;;;;;12.36;91.95;99886.16;5093905;28;20054;-47
2023/01/05 06:13:41;;;;;;;19.02;14.00;;;;;;;12.25;90.99;99883.97;5092666;28;20063;-47
2023/01/05 06:16:07;;;;;;;27.98;16.58;;;;;;;11.86;90.37;99885.00;5092498;28;20032;-48
2023/01/05 06:18:32;;;;;;;38.05;19.77;;;;;;;11.60;92.07;99891.47;5094078;28;20020;-47
2023/01/05 06:20:58;;;;;;;28.55;18.33;;;;;;;11.72;94.19;99895.31;5093791;28;20367;-48
2023/01/05 06:23:23;;;;;;;26.20;16.38;;;;;;;11.90;95.02;99886.31;5093750;28;20017;-48
2023/01/05 06:25:49;;;;;;;24.92;16.13;;;;;;;11.86;94.18;99888.44;5093616;28;20509;-48
2023/01/05 06:28:14;;;;;;;20.08;14.90;;;;;;;11.31;92.36;99890.38;5092096;28;20063;-47
2023/01/05 06:30:40;;;;;;;16.50;14.15;;;;;;;11.00;93.96;99896.47;5092246;28;20027;-48
2023/01/05 06:33:06;;;;;;;28.52;15.60;;;;;;;10.83;94.33;99891.50;5093423;28;20028;-48
2023/01/05 06:35:31;;;;;;;23.88;15.23;;;;;;;10.78;95.64;99897.25;5093440;28;20061;-48
2023/01/05 06:37:57;;;;;;;20.92;15.00;;;;;;;10.93;97.03;99897.34;5093454;28;20024;-48
2023/01/05 06:40:23;;;;;;;28.50;18.80;;;;;;;11.15;98.26;99898.38;5092024;28;20062;-47
2023/01/05 06:42:48;;;;;;;22.63;16.13;;;;;;;11.19;98.09;99902.28;5091829;28;20056;-47
2023/01/05 06:45:15;;;;;;;23.15;15.27;;;;;;;11.00;96.73;99898.28;5091109;28;20051;-47
2023/01/05 06:47:42;;;;;;;21.52;13.38;;;;;;;10.66;96.13;99901.25;5093264;28;20546;-47
2023/01/05 06:50:08;;;;;;;24.25;15.65;;;;;;;10.49;97.29;99900.50;5091854;28;20023;-47
2023/01/05 06:52:35;;;;;;;23.35;15.65;;;;;;;10.74;99.53;99898.56;5093194;28;20054;-47
2023/01/05 06:55:02;;;;;;;30.80;19.95;;;;;;;11.15;100.00;99895.75;5093115;28;20027;-48
2023/01/05 06:57:28;;;;;;;27.13;19.13;;;;;;;11.25;99.98;99901.59;5091743;28;20112;-47
2023/01/05 06:59:54;;;;;;;29.90;18.77;;;;;;;11.15;98.73;99891.31;5091689;28;20515;-48
2023/01/05 07:02:20;;;;;;;36.10;19.15;;;;;;;11.00;98.38;99893.03;5091874;28;20024;-47
2023/01/05 07:04:45;;;;;;;31.45;18.65;;;;;;;11.30;100.00;99893.97;5091473;28;20059;-47
2023/01/05 07:07:13;;;;;;;29.15;18.05;;;;;;;11.63;100.00;99896.38;5091493;28;20074;-47
2023/01/05 07:09:39;;;;;;;28.88;18.27;;;;;;;11.78;100.00;99884.06;5091521;28;20023;-48
2023/01/05 07:12:05;;;;;;;28.77;17.98;;;;;;;11.84;100.00;99885.16;5092719;28;20149;-47
2023/01/05 07:14:31;;;;;;;24.27;18.35;;;;;;;11.85;99.58;99885.97;5092753;28;20028;-47
2023/01/05 07:16:56;;;;;;;32.40;17.13;;;;;;;11.74;99.01;99880.16;5092588;28;20036;-47
2023/01/05 07:19:22;;;;;;;30.58;18.35;;;;;;;11.84;100.00;99882.53;5092635;28;20016;-48
2023/01/05 07:21:48;;;;;;;33.42;17.40;;;;;;;11.95;99.92;99881.31;5092563;28;20031;-48
2023/01/05 07:24:13;;;;;;;44.13;18.88;;;;;;;12.09;99.72;99879.69;5091214;28;20024;-48
2023/01/05 07:26:39;;;;;;;30.48;17.02;;;;;;;12.15;99.82;99869.28;5090871;28;20044;-48
2023/01/05 07:29:05;;;;;;;29.05;17.45;;;;;;;12.26;99.37;99873.25;5092571;28;20573;-48
2023/01/05 07:31:30;;;;;;;28.05;15.90;;;;;;;12.28;98.80;99873.91;5091386;28;20024;-48
2023/01/05 07:33:56;;;;;;;35.85;17.50;;;;;;;12.22;98.21;99868.56;5090996;28;20035;-48
2023/01/05 07:36:22;;;;;;;24.42;17.85;;;;;;;12.15;97.83;99873.69;5091008;28;20417;-48
2023/01/05 07:38:48;;;;;;;36.30;19.40;;;;;;;12.11;98.27;99868.00;5092254;28;20075;-48
2023/01/05 07:41:14;;;;;;;32.13;17.83;;;;;;;12.20;98.90;99863.47;5090882;28;20533;-48
2023/01/05 07:43:40;;;;;;;30.65;17.52;;;;;;;12.27;98.09;99868.81;5092215;28;20028;-48
2023/01/05 07:46:06;;;;;;;27.27;16.58;;;;;;;12.36;98.13;99873.81;5090779;28;20157;-48
2023/01/05 07:48:32;;;;;;;32.58;17.58;;;;;;;12.52;98.06;99877.25;5090856;28;20387;-48
2023/01/05 07:51:04;;;;;;;23.60;16.42;;;;;;;12.51;97.32;99865.06;5092175;28;20024;-48
2023/01/05 07:53:32;;;;;;;25.45;14.60;;;;;;;12.58;97.72;99871.25;5073968;28;20039;-48
2023/01/05 07:55:59;;;;;;;23.42;14.32;;;;;;;12.68;97.13;99873.59;5092136;28;20394;-48
2023/01/05 07:58:26;;;;;;;32.10;16.02;;;;;;;12.83;96.44;99865.66;5090729;28;20527;-48
2023/01/05 08:00:52;;;;;;;26.00;13.98;;;;;;;12.89;95.13;99868.34;5092049;28;20502;-48
2023/01/05 08:03:18;;;;;;;25.50;14.60;;;;;;;12.59;94.36;99864.97;5091955;28;20024;-48
2023/01/05 08:05:45;;;;;;;31.40;15.30;;;;;;;12.34;95.02;99875.00;5090552;28;20016;-48
2023/01/05 08:08:11;;;;;;;30.75;17.30;;;;;;;12.15;95.39;99874.53;5090614;28;20035;-48
2023/01/05 08:10:38;;;;;;;25.67;15.65;;;;;;;12.02;96.71;99869.06;5090612;28;20024;-48
2023/01/05 08:15:50;;;;;;;;;;;;;;;11.88;97.27;99877.75;5092320;28;20133;-48
2023/01/05 08:18:16;;;;;;;32.08;17.92;;;;;;;11.72;98.02;99883.97;5091769;28;20327;-48
2023/01/05 08:20:41;;;;;;;27.67;17.10;;;;;;;11.74;98.93;99882.78;5090475;28;20028;-48
2023/01/05 08:23:07;;;;;;;24.35;18.13;;;;;;;11.68;99.17;99888.75;5091790;28;20028;-48
2023/01/05 08:25:33;;;;;;;32.75;18.55;;;;;;;11.72;99.81;99882.16;5091653;28;20020;-48
2023/01/05 08:27:59;;;;;;;39.05;20.20;;;;;;;11.69;99.13;99885.16;5090110;28;20052;-47
2023/01/05 08:30:24;;;;;;;36.38;20.85;;;;;;;11.62;99.57;99889.47;5090393;28;20024;-47
2023/01/05 08:32:50;;;;;;;42.47;20.63;;;;;;;11.71;100.00;99882.31;5091683;28;20035;-47
2023/01/05 08:35:16;;;;;;;32.40;20.40;;;;;;;11.56;99.40;99892.81;5091638;28;20059;-47
2023/01/05 08:37:46;;;;;;;34.33;20.73;;;;;;;11.53;100.00;99885.25;5090318;28;20083;-47
2023/01/05 08:40:12;;;;;;;34.40;19.67;;;;;;;11.59;100.00;99876.69;5091646;28;20494;-47
2023/01/05 08:42:39;;;;;;;32.50;19.10;;;;;;;11.63;100.00;99882.41;5091834;28;20070;-47
2023/01/05 08:45:05;;;;;;;30.55;19.63;;;;;;;11.71;100.00;99872.66;5091412;28;20548;-47
2023/01/05 08:47:31;;;;;;;46.13;20.08;;;;;;;11.79;100.00;99877.81;5090544;28;20082;-47
2023/01/05 08:49:57;;;;;;;46.47;20.92;;;;;;;11.80;100.00;99876.81;5090201;28;20027;-47
2023/01/05 08:52:22;;;;;;;42.35;20.50;;;;;;;11.86;100.00;99879.75;5090208;28;20486;-47
2023/01/05 08:54:49;;;;;;;36.33;19.25;;;;;;;11.88;100.00;99870.66;5090146;28;20406;-47
2023/01/05 08:57:14;;;;;;;34.75;20.52;;;;;;;11.73;100.00;99873.28;5090087;28;20056;-47
2023/01/05 08:59:40;;;;;;;25.17;17.90;;;;;;;11.54;100.00;99879.84;5090106;28;20051;-47
2023/01/05 09:02:10;;;;;;;27.63;18.50;;;;;;;11.50;100.00;99883.00;5090052;28;20032;-47
2023/01/05 09:04:36;;;;;;;30.55;19.40;;;;;;;11.55;100.00;99884.13;5091436;28;20051;-47
2023/01/05 09:07:01;;;;;;;29.48;19.45;;;;;;;11.65;100.00;99878.63;5074056;28;20056;-47
2023/01/05 09:09:27;;;;;;;33.72;19.98;;;;;;;11.80;100.00;99884.69;5093888;28;20032;-47
2023/01/05 09:11:53;;;;;;;27.52;17.80;;;;;;;11.86;100.00;99883.19;5093786;28;20032;-47
2023/01/05 09:14:18;;;;;;;26.98;17.70;;;;;;;11.92;100.00;99879.06;5093766;28;20115;-47
2023/01/05 09:16:44;;;;;;;29.58;18.90;;;;;;;12.01;100.00;99875.31;5093638;28;20055;-47
2023/01/05 09:19:10;;;;;;;29.80;17.08;;;;;;;12.12;100.00;99876.72;5093649;28;20028;-47
2023/01/05 09:21:38;;;;;;;31.63;18.17;;;;;;;12.27;100.00;99887.22;5093621;28;20152;-47
2023/01/05 09:24:06;;;;;;;21.75;15.93;;;;;;;12.34;100.00;99888.97;5094804;28;20069;-47
2023/01/05 09:26:32;;;;;;;21.95;16.08;;;;;;;12.37;100.00;99885.97;5094542;28;20083;-47
2023/01/05 09:28:58;;;;;;;30.00;16.05;;;;;;;12.49;100.00;99881.03;5076772;28;20063;-47
2023/01/05 09:31:24;;;;;;;31.73;16.08;;;;;;;12.69;100.00;99888.38;5094669;28;20035;-47
2023/01/05 09:33:50;;;;;;;25.98;14.80;;;;;;;12.81;100.00;99886.91;5093320;28;20024;-47
2023/01/05 09:36:17;;;;;;;28.25;15.82;;;;;;;12.92;100.00;99886.44;5094631;28;20036;-47
2023/01/05 09:38:51;;;;;;;23.95;14.13;;;;;;;13.11;100.00;99892.91;5093321;28;20036;-47
2023/01/05 09:41:37;;;;;;;19.77;14.43;;;;;;;13.28;100.00;99887.38;5094555;28;20036;-47
2023/01/05 09:44:41;;;;;;;17.10;14.00;;;;;;;13.27;99.54;99891.84;5093319;28;20028;-47
2023/01/05 09:47:18;;;;;;;22.73;15.10;;;;;;;13.27;100.00;99891.84;5062592;28;20044;-47
2023/01/05 09:49:46;;;;;;;29.00;16.27;;;;;;;13.35;100.00;99886.50;5093180;28;20028;-47
2023/01/05 09:52:12;;;;;;;17.95;14.10;;;;;;;13.36;100.00;99889.94;5076423;28;20031;-47
2023/01/05 09:54:39;;;;;;;22.73;15.63;;;;;;;13.02;98.27;99886.13;5094249;28;20016;-47
2023/01/05 09:57:22;;;;;;;21.88;16.80;;;;;;;12.64;97.79;99888.94;5092872;28;20076;-47
2023/01/05 09:59:51;;;;;;;29.08;17.50;;;;;;;12.72;100.00;99885.41;5092967;28;20032;-47
2023/01/05 10:02:33;;;;;;;27.38;17.38;;;;;;;12.84;100.00;99896.25;5092847;28;20057;-47
2023/01/05 10:05:00;;;;;;;27.20;17.38;;;;;;;12.89;100.00;99897.34;5076329;28;20039;-47
2023/01/05 10:07:35;;;;;;;21.92;16.05;;;;;;;12.95;100.00;99893.94;5092752;28;20525;-47
2023/01/05 10:10:07;;;;;;;26.58;18.45;;;;;;;13.08;100.00;99897.72;5094006;28;20032;-47
2023/01/05 10:13:02;;;;;;;21.85;16.27;;;;;;;13.04;100.00;99896.47;5094035;28;20498;-47
2023/01/05 10:15:33;;;;;;;20.67;16.25;;;;;;;13.04;100.00;99894.69;5092215;28;20036;-47
2023/01/05 10:18:07;;;;;;;19.90;15.50;;;;;;;13.19;100.00;99892.78;5093867;28;20555;-47
2023/01/05 10:20:50;;;;;;;19.10;14.02;;;;;;;13.29;100.00;99896.94;5092582;28;20095;-47
2023/01/05 10:23:44;;;;;;;18.23;12.82;;;;;;;13.21;100.00;99894.44;5093842;28;20048;-47
2023/01/05 10:26:27;;;;;;;20.70;14.23;;;;;;;13.21;100.00;99899.72;5092387;28;20130;-47
2023/01/05 10:29:08;;;;;;;20.08;12.70;;;;;;;13.24;100.00;99889.63;5093821;28;20024;-47
2023/01/05 10:31:39;;;;;;;16.88;12.63;;;;;;;13.17;100.00;99894.78;5092381;28;20085;-47
2023/01/05 10:34:18;;;;;;;29.38;15.15;;;;;;;13.17;100.00;99886.06;5092244;28;20032;-47
2023/01/05 10:37:02;;;;;;;24.98;12.77;;;;;;;13.37;100.00;99887.13;5092215;28;20035;-47
2023/01/05 10:39:54;;;;;;;20.63;12.30;;;;;;;13.45;100.00;99880.91;5093519;28;20025;-47
2023/01/05 10:42:29;;;;;;;17.42;13.32;;;;;;;13.55;100.00;99877.94;5092137;28;20032;-47
2023/01/05 10:44:58;;;;;;;27.13;14.05;;;;;;;13.62;100.00;99878.81;5093263;28;20566;-46
2023/01/05 10:47:27;;;;;;;126.07;20.50;;;;;;;13.60;100.00;99872.91;5091954;28;20122;-47
2023/01/05 10:49:53;;;;;;;15.55;12.00;;;;;;;13.69;100.00;99873.59;5075069;28;20024;-47
2023/01/05 10:52:21;;;;;;;30.00;21.02;;;;;;;13.78;100.00;99867.16;5093186;28;20020;-46
2023/01/05 10:54:47;;;;;;;25.33;16.95;;;;;;;13.91;100.00;99867.25;5091788;28;20064;-46
2023/01/05 10:57:28;;;;;;;33.65;24.20;;;;;;;14.11;100.00;99864.75;5091771;28;20058;-46
2023/01/05 10:59:59;;;;;;;263.98;33.92;;;;;;;14.27;100.00;99865.44;5091690;28;20058;-46
2023/01/05 11:02:27;;;;;;;16.75;11.23;;;;;;;14.31;100.00;99862.22;5092990;28;20498;-46
2023/01/05 11:05:03;;;;;;;23.38;12.20;;;;;;;14.22;100.00;99857.28;5092785;28;20030;-46
2023/01/05 11:07:29;;;;;;;26.05;13.30;;;;;;;14.17;100.00;99853.41;5091634;28;20028;-46
2023/01/05 11:09:54;;;;;;;15.90;14.15;;;;;;;14.12;100.00;99857.63;5091537;28;20078;-46
2023/01/05 11:12:22;;;;;;;21.83;13.80;;;;;;;14.17;100.00;99858.69;5092832;28;20024;-46
2023/01/05 11:14:56;;;;;;;14.00;12.57;;;;;;;14.24;100.00;99852.63;5092774;28;20019;-46
2023/01/05 11:17:25;;;;;;;16.05;11.90;;;;;;;14.21;100.00;99851.19;5074544;28;20043;-46
2023/01/05 11:19:56;;;;;;;21.08;14.10;;;;;;;14.14;100.00;99847.69;5091344;28;20509;-46
2023/01/05 11:22:42;;;;;;;10.85;9.75;;;;;;;14.23;100.00;99854.47;5091291;28;20401;-46
2023/01/05 11:25:26;;;;;;;15.25;10.45;;;;;;;14.26;100.00;99843.50;5092741;28;20093;-46
2023/01/05 11:28:09;;;;;;;10.82;7.85;;;;;;;14.31;100.00;99843.72;5091015;28;20055;-46
2023/01/05 11:30:45;;;;;;;14.82;9.32;;;;;;;14.46;100.00;99832.22;5090729;28;20404;-46
2023/01/05 11:33:13;;;;;;;8.48;7.47;;;;;;;14.57;100.00;99832.50;5092505;28;20028;-46
2023/01/05 11:35:39;;;;;;;9.68;8.25;;;;;;;14.66;100.00;99834.97;5091059;28;20030;-46
2023/01/05 11:38:18;;;;;;;13.07;10.02;;;;;;;14.53;100.00;99825.94;5091016;28;20122;-46
2023/01/05 11:40:44;;;;;;;39.30;9.77;;;;;;;14.51;100.00;99822.69;5092335;28;20027;-46
2023/01/05 11:43:11;;;;;;;12.43;9.38;;;;;;;14.47;100.00;99821.47;5092331;28;20020;-46
2023/01/05 11:45:44;;;;;;;12.15;8.30;;;;;;;14.44;100.00;99816.56;5092151;28;20137;-46
2023/01/05 11:48:18;;;;;;;11.25;7.60;;;;;;;14.44;100.00;99818.38;5090986;28;20035;-46
2023/01/05 11:50:52;;;;;;;10.87;9.83;;;;;;;14.57;100.00;99810.56;5092233;28;20028;-46
2023/01/05 11:53:33;;;;;;;8.95;8.00;;;;;;;14.59;100.00;99811.16;5092213;28;20107;-46
2023/01/05 11:56:09;;;;;;;8.00;7.20;;;;;;;14.62;100.00;99805.47;5091028;28;20557;-46